createdAt,value
2022-08-18T00:01:14.815Z,92.37
2022-08-18T00:03:56.580Z,90.77
2022-08-18T00:06:30.064Z,90.41
2022-08-18T00:08:59.296Z,90.51
2022-08-18T00:11:28.608Z,90.01
2022-08-18T00:14:22.699Z,90.07
2022-08-18T00:16:53.554Z,91.12
2022-08-18T00:19:45.980Z,90.86
2022-08-18T00:22:14.962Z,91.90
2022-08-18T00:24:47.569Z,92.53
2022-08-18T00:27:21.728Z,91.47
2022-08-18T00:29:53.460Z,90.59
2022-08-18T00:32:24.779Z,89.94
2022-08-18T00:34:52.822Z,89.74
2022-08-18T00:37:21.426Z,89.31
2022-08-18T00:39:51.732Z,88.95
2022-08-18T00:42:27.664Z,89.35
2022-08-18T00:45:03.044Z,89.81
2022-08-18T00:47:41.617Z,89.87
2022-08-18T00:50:18.508Z,89.88
2022-08-18T00:52:51.593Z,89.52
2022-08-18T00:55:20.178Z,90.18
2022-08-18T00:57:52.174Z,89.71
2022-08-18T01:00:22.260Z,88.94
2022-08-18T01:02:56.464Z,90.26
2022-08-18T01:05:30.919Z,90.36
2022-08-18T01:07:59.037Z,90.34
2022-08-18T01:10:27.728Z,90.01
2022-08-18T01:13:00.342Z,89.57
2022-08-18T01:15:30.633Z,89.91
2022-08-18T01:18:18.718Z,90.28
2022-08-18T01:21:16.521Z,91.18
2022-08-18T01:23:47.817Z,90.86
2022-08-18T01:26:16.770Z,90.71
2022-08-18T01:28:47.258Z,90.05
2022-08-18T01:31:32.551Z,88.93
2022-08-18T01:34:01.478Z,88.95
2022-08-18T01:36:29.935Z,88.90
2022-08-18T01:38:59.641Z,88.93
2022-08-18T01:41:30.867Z,89.03
2022-08-18T01:44:00.336Z,88.98
2022-08-18T01:46:28.849Z,88.85
2022-08-18T01:48:58.764Z,88.99
2022-08-18T01:51:40.279Z,88.89
2022-08-18T01:54:16.235Z,89.02
2022-08-18T01:56:44.469Z,88.86
2022-08-18T01:59:15.126Z,88.96
2022-08-18T02:01:48.258Z,89.59
2022-08-18T02:07:10.151Z,89.97
2022-08-18T02:09:41.489Z,89.65
2022-08-18T02:12:09.759Z,89.77
2022-08-18T02:14:38.718Z,89.98
2022-08-18T02:17:09.295Z,89.87
2022-08-18T02:19:40.131Z,89.98
2022-08-18T02:22:09.305Z,89.89
2022-08-18T02:24:39.168Z,89.82
2022-08-18T02:27:08.710Z,89.71
2022-08-18T02:29:37.828Z,89.79
2022-08-18T02:32:06.334Z,89.63
2022-08-18T02:34:34.872Z,89.49
2022-08-18T02:37:03.309Z,89.55
2022-08-18T02:39:31.571Z,89.75
2022-08-18T02:42:00.588Z,89.53
2022-08-18T02:44:32.289Z,89.93
2022-08-18T02:47:00.255Z,89.55
2022-08-18T02:49:29.172Z,89.69
2022-08-18T02:51:56.850Z,90.52
2022-08-18T02:54:26.224Z,90.80
2022-08-18T02:56:57.183Z,90.75
2022-08-18T02:59:31.841Z,90.46
2022-08-18T03:02:01.402Z,90.39
2022-08-18T03:04:33.524Z,90.58
2022-08-18T03:07:04.539Z,90.70
2022-08-18T03:09:33.492Z,90.51
2022-08-18T03:12:01.891Z,90.60
2022-08-18T03:14:32.074Z,90.72
2022-08-18T03:17:00.503Z,90.68
2022-08-18T03:19:30.474Z,90.81
2022-08-18T03:22:02.873Z,90.70
2022-08-18T03:24:32.969Z,90.63
2022-08-18T03:27:02.522Z,90.73
2022-08-18T03:29:32.935Z,90.76
2022-08-18T03:32:01.158Z,90.68
2022-08-18T03:34:30.333Z,90.62
2022-08-18T03:36:58.863Z,90.63
2022-08-18T03:39:28.862Z,90.62
2022-08-18T03:42:01.118Z,90.90
2022-08-18T03:44:33.011Z,90.61
2022-08-18T03:47:02.994Z,90.47
2022-08-18T03:49:32.760Z,90.47
2022-08-18T03:52:01.326Z,90.36
2022-08-18T03:54:32.711Z,90.82
2022-08-18T03:57:00.682Z,90.74
2022-08-18T03:59:32.343Z,90.55
2022-08-18T04:02:03.804Z,91.16
2022-08-18T04:04:31.887Z,91.86
2022-08-18T04:07:04.434Z,91.77
2022-08-18T04:09:34.327Z,91.55
2022-08-18T04:12:11.190Z,91.78
2022-08-18T04:14:46.718Z,92.13
2022-08-18T04:17:16.160Z,92.89
2022-08-18T04:19:44.073Z,92.32
2022-08-18T04:22:17.606Z,91.58
2022-08-18T04:24:46.715Z,91.51
2022-08-18T04:27:14.393Z,91.67
2022-08-18T04:29:42.413Z,91.20
2022-08-18T04:32:10.117Z,91.10
2022-08-18T04:34:39.435Z,91.01
2022-08-18T04:37:09.518Z,90.67
2022-08-18T04:39:37.814Z,89.87
2022-08-18T04:42:06.109Z,89.28
2022-08-18T04:44:34.823Z,89.51
2022-08-18T04:47:02.794Z,90.26
2022-08-18T04:49:32.279Z,90.57
2022-08-18T04:52:34.442Z,91.03
2022-08-18T04:55:08.303Z,91.05
2022-08-18T04:57:36.473Z,89.69
2022-08-18T05:00:07.346Z,89.69
2022-08-18T05:02:35.132Z,89.21
2022-08-18T05:05:04.507Z,88.78
2022-08-18T05:07:34.048Z,89.00
2022-08-18T05:10:02.458Z,88.97
2022-08-18T05:12:30.207Z,89.00
2022-08-18T05:14:58.694Z,89.19
2022-08-18T05:17:28.875Z,89.52
2022-08-18T05:19:59.230Z,89.83
2022-08-18T05:22:28.487Z,90.53
2022-08-18T05:25:00.732Z,90.23
2022-08-18T05:27:32.836Z,90.38
2022-08-18T05:30:00.523Z,89.98
2022-08-18T05:32:47.347Z,89.70
2022-08-18T05:35:23.372Z,89.83
2022-08-18T05:38:05.231Z,89.90
2022-08-18T05:40:35.892Z,89.93
2022-08-18T05:43:05.674Z,89.50
2022-08-18T05:45:35.113Z,90.04
2022-08-18T05:48:02.866Z,89.83
2022-08-18T05:50:34.000Z,89.83
2022-08-18T05:53:13.857Z,89.52
2022-08-18T05:56:14.426Z,89.82
2022-08-18T05:58:45.352Z,89.67
2022-08-18T06:01:19.264Z,89.74
2022-08-18T06:03:51.165Z,89.63
2022-08-18T06:06:27.885Z,89.27
2022-08-18T06:09:02.560Z,88.75
2022-08-18T06:11:32.914Z,88.89
2022-08-18T06:14:01.348Z,88.27
2022-08-18T06:16:44.708Z,88.53
2022-08-18T06:19:27.984Z,88.02
2022-08-18T06:22:04.422Z,87.82
2022-08-18T06:24:37.544Z,88.13
2022-08-18T06:27:15.442Z,88.02
2022-08-18T06:29:55.392Z,87.68
2022-08-18T06:32:32.502Z,87.81
2022-08-18T06:35:12.167Z,88.04
2022-08-18T06:38:14.214Z,88.06
2022-08-18T06:40:43.156Z,87.90
2022-08-18T06:43:16.993Z,88.36
2022-08-18T06:45:53.311Z,88.01
2022-08-18T06:48:28.318Z,87.74
2022-08-18T06:51:00.800Z,87.36
2022-08-18T06:53:53.492Z,85.13
2022-08-18T06:56:26.287Z,85.29
2022-08-18T06:59:03.343Z,84.45
2022-08-18T07:01:33.858Z,84.30
2022-08-18T07:04:01.566Z,83.81
2022-08-18T07:06:32.628Z,83.86
2022-08-18T07:09:21.226Z,82.77
2022-08-18T07:12:08.183Z,82.08
2022-08-18T07:14:46.185Z,81.21
2022-08-18T07:17:22.514Z,81.71
2022-08-18T07:20:20.412Z,81.98
2022-08-18T07:23:08.488Z,82.72
2022-08-18T07:25:43.062Z,82.13
2022-08-18T07:28:30.429Z,82.10
2022-08-18T07:31:17.220Z,81.83
2022-08-18T07:33:56.621Z,81.55
2022-08-18T07:36:32.146Z,80.77
2022-08-18T07:39:03.833Z,80.06
2022-08-18T07:41:37.775Z,80.59
2022-08-18T07:44:19.152Z,79.51
2022-08-18T07:46:55.169Z,79.19
2022-08-18T07:49:29.711Z,79.44
2022-08-18T07:52:36.636Z,79.39
2022-08-18T07:55:24.481Z,79.07
2022-08-18T07:58:00.777Z,79.49
2022-08-18T08:00:57.657Z,79.23
2022-08-18T08:03:36.549Z,77.79
2022-08-18T08:06:09.592Z,79.07
2022-08-18T08:08:43.469Z,78.68
2022-08-18T08:11:27.630Z,79.29
2022-08-18T08:14:13.762Z,78.31
2022-08-18T08:16:48.160Z,78.59
2022-08-18T08:19:58.795Z,78.53
2022-08-18T08:22:28.536Z,79.23
2022-08-18T08:25:03.828Z,79.24
2022-08-18T08:27:43.386Z,78.46
2022-08-18T08:30:14.198Z,77.91
2022-08-18T08:32:51.365Z,76.40
2022-08-18T08:35:50.105Z,73.71
2022-08-18T08:38:42.801Z,74.21
2022-08-18T08:41:19.459Z,72.42
2022-08-18T08:43:54.302Z,72.15
2022-08-18T08:46:26.142Z,70.87
2022-08-18T08:49:00.431Z,70.82
2022-08-18T08:51:36.722Z,70.16
2022-08-18T08:54:09.671Z,70.36
2022-08-18T08:56:43.602Z,69.51
2022-08-18T08:59:13.679Z,69.38
2022-08-18T09:01:49.345Z,67.74
2022-08-18T09:04:30.022Z,67.03
2022-08-18T09:07:13.434Z,64.59
2022-08-18T09:10:06.837Z,65.12
2022-08-18T09:12:50.294Z,64.25
2022-08-18T09:15:34.090Z,61.86
2022-08-18T09:18:14.874Z,61.79
2022-08-18T09:20:54.414Z,59.01
2022-08-18T09:23:29.461Z,60.45
2022-08-18T09:26:00.351Z,60.64
2022-08-18T09:28:56.629Z,60.15
2022-08-18T09:31:26.224Z,59.63
2022-08-18T09:34:10.596Z,57.36
2022-08-18T09:37:09.948Z,57.34
2022-08-18T09:40:10.957Z,55.83
2022-08-18T09:42:57.837Z,55.87
2022-08-18T09:45:57.455Z,56.09
2022-08-18T09:48:30.621Z,56.44
2022-08-18T09:51:40.124Z,56.20
2022-08-18T09:54:21.485Z,54.26
2022-08-18T09:57:19.264Z,54.68
2022-08-18T10:00:33.487Z,53.95
2022-08-18T10:03:14.167Z,55.02
2022-08-18T10:05:59.544Z,54.91
2022-08-18T10:09:18.171Z,54.32
2022-08-18T10:12:27.486Z,54.27
2022-08-18T10:15:33.146Z,52.33
2022-08-18T10:18:21.479Z,54.14
2022-08-18T10:21:00.125Z,55.95
2022-08-18T10:23:51.714Z,55.66
2022-08-18T10:27:09.243Z,53.21
2022-08-18T10:29:53.467Z,55.10
2022-08-18T10:32:54.087Z,55.11
2022-08-18T10:35:58.418Z,53.49
2022-08-18T10:38:49.817Z,53.91
2022-08-18T10:41:26.441Z,53.30
2022-08-18T10:44:01.351Z,51.81
2022-08-18T10:46:46.628Z,49.37
2022-08-18T10:49:25.290Z,50.11
2022-08-18T10:52:17.212Z,50.96
2022-08-18T10:55:06.913Z,52.07
2022-08-18T10:57:55.912Z,51.52
2022-08-18T11:00:36.925Z,52.74
2022-08-18T11:03:52.170Z,52.82
2022-08-18T11:06:06.844Z,52.42
2022-08-18T11:08:46.059Z,53.80
2022-08-18T11:11:33.795Z,52.08
2022-08-18T11:14:13.095Z,50.36
2022-08-18T11:16:50.556Z,50.02
2022-08-18T11:19:24.733Z,50.17
2022-08-18T11:21:54.107Z,50.96
2022-08-18T11:24:25.255Z,51.52
2022-08-18T11:26:55.965Z,50.57
2022-08-18T11:29:29.382Z,51.82
2022-08-18T11:32:04.743Z,52.43
2022-08-18T11:37:48.979Z,53.19
2022-08-18T11:41:11.198Z,52.76
2022-08-18T11:43:29.855Z,53.98
2022-08-18T11:45:59.836Z,54.40
2022-08-18T11:48:50.934Z,52.71
2022-08-18T11:51:26.899Z,53.94
2022-08-18T11:53:59.637Z,53.64
2022-08-18T11:56:32.393Z,54.62
2022-08-18T11:59:09.219Z,54.88
2022-08-18T12:01:48.642Z,54.63
2022-08-18T12:04:24.465Z,53.84
2022-08-18T12:07:01.087Z,54.67
2022-08-18T12:12:33.193Z,55.56
2022-08-18T12:15:25.259Z,56.60
2022-08-18T12:17:57.987Z,56.15
2022-08-18T12:20:25.661Z,55.55
2022-08-18T12:22:57.976Z,56.21
2022-08-18T12:25:25.897Z,55.20
2022-08-18T12:27:53.917Z,56.07
2022-08-18T12:30:22.016Z,56.19
2022-08-18T12:32:55.787Z,54.70
2022-08-18T12:35:25.094Z,54.97
2022-08-18T12:38:00.219Z,55.33
2022-08-18T12:40:40.258Z,55.29
2022-08-18T12:43:08.082Z,55.09
2022-08-18T12:45:37.403Z,54.88
2022-08-18T12:48:06.872Z,55.40
2022-08-18T12:50:42.658Z,55.44
2022-08-18T12:53:30.088Z,55.84
2022-08-18T12:56:10.703Z,54.61
2022-08-18T12:58:40.558Z,54.85
2022-08-18T13:01:08.608Z,55.17
2022-08-18T13:03:37.001Z,55.70
2022-08-18T13:06:05.186Z,56.40
2022-08-18T13:08:38.090Z,57.40
2022-08-18T13:11:23.558Z,55.67
2022-08-18T13:13:56.102Z,55.55
2022-08-18T13:16:30.689Z,56.96
2022-08-18T13:19:15.503Z,55.60
2022-08-18T13:21:43.246Z,56.60
2022-08-18T13:24:13.196Z,56.54
2022-08-18T13:26:46.229Z,56.87
2022-08-18T13:29:17.548Z,56.22
2022-08-18T13:31:55.399Z,56.79
2022-08-18T13:34:27.518Z,58.38
2022-08-18T13:36:58.179Z,58.60
2022-08-18T13:39:31.305Z,57.18
2022-08-18T13:42:26.311Z,56.69
2022-08-18T13:44:52.857Z,56.81
2022-08-18T13:47:21.121Z,56.83
2022-08-18T13:49:57.883Z,57.97
2022-08-18T13:52:34.203Z,57.77
2022-08-18T13:55:08.384Z,57.21
2022-08-18T13:57:41.836Z,56.02
2022-08-18T14:00:18.236Z,57.27
2022-08-18T14:02:50.074Z,56.90
2022-08-18T14:05:18.439Z,57.42
2022-08-18T14:07:48.824Z,57.50
2022-08-18T14:10:19.215Z,58.05
2022-08-18T14:12:47.395Z,58.78
2022-08-18T14:15:18.068Z,58.51
2022-08-18T14:17:46.556Z,59.00
2022-08-18T14:20:35.275Z,59.13
2022-08-18T14:23:25.184Z,58.73
2022-08-18T14:26:19.410Z,59.07
2022-08-18T14:28:47.599Z,59.64
2022-08-18T14:31:20.559Z,59.73
2022-08-18T14:33:53.553Z,59.33
2022-08-18T14:36:29.922Z,59.27
2022-08-18T14:38:58.548Z,59.70
2022-08-18T14:41:29.186Z,59.55
2022-08-18T14:44:12.982Z,60.99
2022-08-18T14:46:52.232Z,61.37
2022-08-18T14:49:28.143Z,62.37
2022-08-18T14:51:58.507Z,62.77
2022-08-18T14:54:28.486Z,62.66
2022-08-18T14:57:01.716Z,61.79
2022-08-18T14:59:37.833Z,62.04
2022-08-18T15:02:06.939Z,62.71
2022-08-18T15:04:56.383Z,63.15
2022-08-18T15:07:25.982Z,63.42
2022-08-18T15:10:14.894Z,63.92
2022-08-18T15:12:43.728Z,63.72
2022-08-18T15:15:15.930Z,63.79
2022-08-18T15:17:50.380Z,65.24
2022-08-18T15:20:24.057Z,66.03
2022-08-18T15:23:17.658Z,66.25
2022-08-18T15:25:51.493Z,66.88
2022-08-18T15:28:23.786Z,67.14
2022-08-18T15:33:41.917Z,68.35
2022-08-18T15:36:10.625Z,68.50
2022-08-18T15:38:44.119Z,69.03
2022-08-18T15:41:29.491Z,70.22
2022-08-18T15:44:00.811Z,70.41
2022-08-18T15:46:29.788Z,70.31
2022-08-18T15:48:57.919Z,70.60
2022-08-18T15:51:26.517Z,71.01
2022-08-18T15:54:04.072Z,71.36
2022-08-18T15:56:33.123Z,71.25
2022-08-18T15:59:07.659Z,72.41
2022-08-18T16:01:41.901Z,71.69
2022-08-18T16:04:10.348Z,72.10
2022-08-18T16:06:41.253Z,72.25
2022-08-18T16:09:09.440Z,72.36
2022-08-18T16:11:37.575Z,72.59
2022-08-18T16:14:09.147Z,73.15
2022-08-18T16:16:37.056Z,72.64
2022-08-18T16:19:07.641Z,72.56
2022-08-18T16:21:40.479Z,73.14
2022-08-18T16:24:09.232Z,73.20
2022-08-18T16:26:38.064Z,75.23
2022-08-18T16:29:07.069Z,74.68
2022-08-18T16:31:35.156Z,75.63
2022-08-18T16:34:03.152Z,76.30
2022-08-18T16:36:31.471Z,78.39
2022-08-18T16:38:59.180Z,77.80
2022-08-18T16:41:28.142Z,77.84
2022-08-18T16:43:56.345Z,78.77
2022-08-18T16:46:28.220Z,78.99
2022-08-18T16:48:57.569Z,78.88
2022-08-18T16:51:28.649Z,79.61
2022-08-18T16:53:56.470Z,79.76
2022-08-18T16:56:27.096Z,81.11
2022-08-18T16:59:12.930Z,80.66
2022-08-18T17:02:00.839Z,82.67
2022-08-18T17:04:30.089Z,83.94
2022-08-18T17:06:58.565Z,83.66
2022-08-18T17:09:26.489Z,84.35
2022-08-18T17:11:55.709Z,85.80
2022-08-18T17:14:25.834Z,86.08
2022-08-18T17:16:56.175Z,87.49
2022-08-18T17:19:25.371Z,87.57
2022-08-18T17:21:53.337Z,87.82
2022-08-18T17:24:32.194Z,87.99
2022-08-18T17:27:22.839Z,88.67
2022-08-18T17:30:01.583Z,89.04
2022-08-18T17:35:14.674Z,89.83
2022-08-18T17:37:49.230Z,88.67
2022-08-18T17:40:21.854Z,88.21
2022-08-18T17:42:51.729Z,87.72
2022-08-18T17:45:22.053Z,88.34
2022-08-18T17:47:57.892Z,88.41
2022-08-18T17:50:47.020Z,88.21
2022-08-18T17:53:16.054Z,87.28
2022-08-18T17:55:48.340Z,87.25
2022-08-18T17:58:22.520Z,87.04
2022-08-18T18:00:50.161Z,88.04
2022-08-18T18:03:19.252Z,87.86
2022-08-18T18:05:52.584Z,88.18
2022-08-18T18:08:20.254Z,88.45
2022-08-18T18:11:04.250Z,88.48
2022-08-18T18:13:34.541Z,88.41
2022-08-18T18:16:20.182Z,88.68
2022-08-18T18:18:59.963Z,88.30
2022-08-18T18:22:00.200Z,89.33
2022-08-18T18:24:23.678Z,90.61
2022-08-18T18:26:52.557Z,92.35
2022-08-18T18:29:28.866Z,92.87
2022-08-18T18:32:00.479Z,93.46
2022-08-18T18:34:39.924Z,94.01
2022-08-18T18:37:26.299Z,93.53
2022-08-18T18:39:59.666Z,93.80
2022-08-18T18:42:30.967Z,94.19
2022-08-18T18:45:01.369Z,94.12
2022-08-18T18:47:45.620Z,94.21
2022-08-18T18:50:22.771Z,94.26
2022-08-18T18:53:03.178Z,94.54
2022-08-18T18:55:36.095Z,94.98
2022-08-18T18:58:14.347Z,95.34
2022-08-18T19:00:53.599Z,95.66
2022-08-18T19:03:27.815Z,95.64
2022-08-18T19:06:14.225Z,96.01
2022-08-18T19:08:51.839Z,95.75
2022-08-18T19:11:30.039Z,95.66
2022-08-18T19:14:07.583Z,95.24
2022-08-18T19:16:41.173Z,95.40
2022-08-18T19:19:37.429Z,95.75
2022-08-18T19:22:13.421Z,95.10
2022-08-18T19:24:52.193Z,94.26
2022-08-18T19:27:27.907Z,94.15
2022-08-18T19:30:01.581Z,93.41
2022-08-18T19:32:38.285Z,93.59
2022-08-18T19:35:11.839Z,94.13
2022-08-18T19:37:54.338Z,93.96
2022-08-18T19:40:28.143Z,94.60
2022-08-18T19:43:01.039Z,94.32
2022-08-18T19:45:34.339Z,95.27
2022-08-18T19:48:08.359Z,95.35
2022-08-18T19:50:41.931Z,95.38
2022-08-18T19:53:32.578Z,95.11
2022-08-18T19:56:22.655Z,94.63
2022-08-18T19:59:18.534Z,94.11
2022-08-18T20:02:05.659Z,93.81
2022-08-18T20:04:53.145Z,92.89
2022-08-18T20:07:56.505Z,92.79
2022-08-18T20:10:38.899Z,92.77
2022-08-18T20:13:23.269Z,93.11
2022-08-18T20:16:13.582Z,92.65
2022-08-18T20:18:43.710Z,92.40
2022-08-18T20:21:49.589Z,91.79
2022-08-18T20:24:39.330Z,91.15
2022-08-18T20:27:35.474Z,90.96
2022-08-18T20:30:32.490Z,91.01
2022-08-18T20:33:10.473Z,90.35
2022-08-18T20:35:45.827Z,90.63
2022-08-18T20:38:27.072Z,90.91
2022-08-18T20:40:55.386Z,91.15
2022-08-18T20:43:30.379Z,90.76
2022-08-18T20:46:19.120Z,91.96
2022-08-18T20:49:06.120Z,91.85
2022-08-18T20:51:42.530Z,93.35
2022-08-18T20:54:30.292Z,93.53
2022-08-18T20:57:03.615Z,93.06
2022-08-18T20:59:36.511Z,91.81
2022-08-18T21:02:09.276Z,92.39
2022-08-18T21:04:46.078Z,91.85
2022-08-18T21:07:36.762Z,91.92
2022-08-18T21:10:14.709Z,92.39
2022-08-18T21:12:52.033Z,92.60
2022-08-18T21:15:24.602Z,93.41
2022-08-18T21:18:03.739Z,92.96
2022-08-18T21:20:32.845Z,92.33
2022-08-18T21:23:07.629Z,92.68
2022-08-18T21:25:36.549Z,93.41
2022-08-18T21:28:07.168Z,93.41
2022-08-18T21:30:36.650Z,93.42
2022-08-18T21:33:20.017Z,93.52
2022-08-18T21:35:48.513Z,93.79
2022-08-18T21:38:24.073Z,93.95
2022-08-18T21:40:58.346Z,94.00
2022-08-18T21:43:42.328Z,94.21
2022-08-18T21:46:26.265Z,94.11
2022-08-18T21:48:56.228Z,94.72
2022-08-18T21:51:27.673Z,94.31
2022-08-18T21:53:56.014Z,94.51
2022-08-18T21:56:28.067Z,94.91
2022-08-18T21:59:09.284Z,94.17
2022-08-18T22:01:48.233Z,94.51
2022-08-18T22:04:29.539Z,95.05
2022-08-18T22:07:00.607Z,94.88
2022-08-18T22:09:48.378Z,94.38
2022-08-18T22:12:42.678Z,93.95
2022-08-18T22:15:12.805Z,93.83
2022-08-18T22:17:54.251Z,92.96
2022-08-18T22:20:47.881Z,92.78
2022-08-18T22:23:55.864Z,93.03
2022-08-18T22:26:27.510Z,93.63
2022-08-18T22:29:02.578Z,92.64
2022-08-18T22:31:32.546Z,92.05
2022-08-18T22:34:04.738Z,91.61
2022-08-18T22:36:37.216Z,90.98
2022-08-18T22:39:08.786Z,90.53
2022-08-18T22:41:37.423Z,90.53
2022-08-18T22:44:05.583Z,90.47
2022-08-18T22:46:34.927Z,90.66
2022-08-18T22:49:04.500Z,91.20
2022-08-18T22:51:37.003Z,92.40
2022-08-18T22:54:06.294Z,93.40
2022-08-18T22:56:35.752Z,94.03
2022-08-18T22:59:15.830Z,94.61
2022-08-18T23:01:46.749Z,94.81
2022-08-18T23:04:16.990Z,93.00
2022-08-18T23:06:52.600Z,92.40
2022-08-18T23:09:22.884Z,92.88
2022-08-18T23:11:52.011Z,92.33
2022-08-18T23:14:19.670Z,92.84
2022-08-18T23:16:47.897Z,92.63
2022-08-18T23:19:18.277Z,93.34
2022-08-18T23:21:46.583Z,94.66
2022-08-18T23:24:16.341Z,95.68
2022-08-18T23:26:44.424Z,95.89
2022-08-18T23:29:14.629Z,96.19
2022-08-18T23:31:44.829Z,96.62
2022-08-18T23:34:15.659Z,96.55
2022-08-18T23:36:46.175Z,97.13
2022-08-18T23:39:14.853Z,96.95
2022-08-18T23:41:42.999Z,97.51
2022-08-18T23:44:11.817Z,97.87
2022-08-18T23:46:39.707Z,98.34
2022-08-18T23:49:13.739Z,97.73
2022-08-18T23:51:45.782Z,97.73
2022-08-18T23:54:17.634Z,97.21
2022-08-18T23:56:46.302Z,97.31
2022-08-18T23:59:15.251Z,96.99
